Time,TemperatureF,DewpointF,PressureIn,WindDirection,WindDirectionDegrees,WindSpeedMPH,WindSpeedGustMPH,Humidity,HourlyPrecipIn,Conditions,Clouds,dailyrainin,SoftwareType,DateUTC
2013-07-16 00:07:00,68.9,65.8,30.17,SSE,157,0.0,-999.0,90,-99.99,,,0.00,Acu-Link.com,2013-07-16 04:07:00,
2013-07-16 00:23:00,68.5,65.8,30.17,NNW,337,0.0,-999.0,91,-99.99,,,0.00,Acu-Link.com,2013-07-16 04:23:00,
2013-07-16 00:38:00,68.0,65.9,30.17,NNW,337,0.0,-999.0,93,-99.99,,,0.00,Acu-Link.com,2013-07-16 04:38:00,
2013-07-16 00:54:00,67.3,65.5,30.17,NNE,22,0.0,-999.0,94,-99.99,,,0.00,Acu-Link.com,2013-07-16 04:54:00,
2013-07-16 01:09:00,66.9,65.1,30.17,ESE,112,0.0,-999.0,94,-99.99,,,0.00,Acu-Link.com,2013-07-16 05:09:00,
2013-07-16 01:24:00,66.6,65.1,30.17,SSE,157,0.0,-999.0,95,-99.99,,,0.00,Acu-Link.com,2013-07-16 05:24:00,
2013-07-16 01:40:00,66.6,65.4,30.17,North,0,0.0,-999.0,96,-99.99,,,0.00,Acu-Link.com,2013-07-16 05:40:00,
2013-07-16 01:55:00,65.8,64.9,30.17,North,0,0.0,-999.0,97,-99.99,,,0.00,Acu-Link.com,2013-07-16 05:55:00,
2013-07-16 02:10:00,65.5,64.6,30.17,NW,315,0.0,-999.0,97,-99.99,,,0.00,Acu-Link.com,2013-07-16 06:10:00,
2013-07-16 02:25:00,65.3,64.7,30.16,NNE,22,0.0,-999.0,98,-99.99,,,0.00,Acu-Link.com,2013-07-16 06:25:00,
2013-07-16 02:40:00,65.1,64.5,30.17,ESE,112,0.0,-999.0,98,-99.99,,,0.00,Acu-Link.com,2013-07-16 06:40:00,
2013-07-16 02:56:00,64.9,64.3,30.17,South,180,0.0,-999.0,98,-99.99,,,0.00,Acu-Link.com,2013-07-16 06:56:00,
2013-07-16 03:11:00,64.8,64.2,30.16,North,0,0.0,-999.0,98,-99.99,,,0.00,Acu-Link.com,2013-07-16 07:11:00,
2013-07-16 03:26:00,64.4,63.8,30.17,ENE,67,0.0,-999.0,98,-99.99,,,0.00,Acu-Link.com,2013-07-16 07:26:00,
2013-07-16 03:42:00,64.0,63.4,30.16,WNW,292,0.0,-999.0,98,-99.99,,,0.00,Acu-Link.com,2013-07-16 07:42:00,
2013-07-16 03:57:00,64.0,63.4,30.17,NNE,22,0.0,-999.0,98,-99.99,,,0.00,Acu-Link.com,2013-07-16 07:57:00,
2013-07-16 04:13:00,63.9,63.3,30.16,NNE,22,0.0,-999.0,98,-99.99,,,0.00,Acu-Link.com,2013-07-16 08:13:00,
2013-07-16 04:43:00,64.0,63.4,30.16,NE,45,0.0,-999.0,98,-99.99,,,0.00,Acu-Link.com,2013-07-16 08:43:00,
2013-07-16 04:58:00,64.0,63.4,30.17,NNE,22,0.0,-999.0,98,-99.99,,,0.00,Acu-Link.com,2013-07-16 08:58:00,
2013-07-16 05:13:00,64.0,63.4,30.17,SE,135,0.0,-999.0,98,-99.99,,,0.00,Acu-Link.com,2013-07-16 09:13:00,
2013-07-16 05:28:00,63.9,63.3,30.18,NNE,22,0.0,-999.0,98,-99.99,,,0.00,Acu-Link.com,2013-07-16 09:28:00,
2013-07-16 05:44:00,63.5,62.9,30.18,NNE,22,0.0,-999.0,98,-99.99,,,0.00,Acu-Link.com,2013-07-16 09:44:00,
2013-07-16 05:59:00,63.3,62.7,30.18,ENE,67,0.0,-999.0,98,-99.99,,,0.00,Acu-Link.com,2013-07-16 09:59:00,
2013-07-16 06:14:00,63.5,62.9,30.19,NNE,22,0.0,-999.0,98,-99.99,,,0.00,Acu-Link.com,2013-07-16 10:14:00,
2013-07-16 06:30:00,64.0,63.4,30.19,WNW,292,0.0,-999.0,98,-99.99,,,0.00,Acu-Link.com,2013-07-16 10:30:00,
2013-07-16 06:45:00,64.6,64.0,30.19,NE,45,0.0,-999.0,98,-99.99,,,0.00,Acu-Link.com,2013-07-16 10:45:00,
2013-07-16 07:00:00,65.5,64.9,30.19,SE,135,0.0,-999.0,98,-99.99,,,0.00,Acu-Link.com,2013-07-16 11:00:00,
2013-07-16 07:16:00,66.6,66.0,30.19,WNW,292,0.0,-999.0,98,-99.99,,,0.00,Acu-Link.com,2013-07-16 11:16:00,
2013-07-16 07:31:00,67.6,67.0,30.19,WNW,292,0.0,-999.0,98,-99.99,,,0.00,Acu-Link.com,2013-07-16 11:31:00,
2013-07-16 07:46:00,69.3,68.7,30.19,WNW,292,0.0,-999.0,98,-99.99,,,0.00,Acu-Link.com,2013-07-16 11:46:00,
2013-07-16 08:01:00,71.1,70.5,30.20,WNW,292,0.0,-999.0,98,-99.99,,,0.00,Acu-Link.com,2013-07-16 12:01:00,
2013-07-16 08:17:00,72.9,72.0,30.20,NNE,22,0.0,-999.0,97,-99.99,,,0.00,Acu-Link.com,2013-07-16 12:17:00,
2013-07-16 08:32:00,74.5,72.3,30.20,South,180,0.0,-999.0,93,-99.99,,,0.00,Acu-Link.com,2013-07-16 12:32:00,
2013-07-16 08:47:00,75.9,71.4,30.20,West,270,0.0,-999.0,86,-99.99,,,0.00,Acu-Link.com,2013-07-16 12:47:00,
2013-07-16 09:03:00,76.8,71.2,30.20,SSE,157,0.0,-999.0,83,-99.99,,,0.00,Acu-Link.com,2013-07-16 13:03:00,
2013-07-16 09:18:00,77.5,71.6,30.20,NNE,22,0.0,-999.0,82,-99.99,,,0.00,Acu-Link.com,2013-07-16 13:18:00,
2013-07-16 09:34:00,78.6,71.9,30.20,SSW,202,1.1,-999.0,80,-99.99,,,0.00,Acu-Link.com,2013-07-16 13:34:00,
2013-07-16 09:49:00,79.5,72.0,30.20,NNW,337,0.0,-999.0,78,-99.99,,,0.00,Acu-Link.com,2013-07-16 13:49:00,
2013-07-16 10:04:00,80.6,72.7,30.20,SSE,157,1.1,-999.0,77,-99.99,,,0.00,Acu-Link.com,2013-07-16 14:04:00,
2013-07-16 10:19:00,81.9,71.6,30.20,South,180,1.7,-999.0,71,-99.99,,,0.00,Acu-Link.com,2013-07-16 14:19:00,
2013-07-16 10:35:00,82.4,71.2,30.20,ESE,112,2.2,-999.0,69,-99.99,,,0.00,Acu-Link.com,2013-07-16 14:35:00,
2013-07-16 10:50:00,83.3,71.6,30.20,NNE,22,1.1,-999.0,68,-99.99,,,0.00,Acu-Link.com,2013-07-16 14:50:00,
2013-07-16 11:05:00,84.0,70.9,30.19,ESE,112,1.7,-999.0,65,-99.99,,,0.00,Acu-Link.com,2013-07-16 15:05:00,
2013-07-16 11:20:00,84.4,71.8,30.19,East,90,0.0,-999.0,66,-99.99,,,0.00,Acu-Link.com,2013-07-16 15:20:00,
2013-07-16 11:36:00,85.3,71.7,30.19,SSE,157,2.2,-999.0,64,-99.99,,,0.00,Acu-Link.com,2013-07-16 15:36:00,
2013-07-16 11:51:00,84.6,71.1,30.18,North,0,2.7,-999.0,64,-99.99,,,0.00,Acu-Link.com,2013-07-16 15:51:00,
2013-07-16 12:06:00,86.2,72.1,30.18,ESE,112,2.7,-999.0,63,-99.99,,,0.00,Acu-Link.com,2013-07-16 16:06:00,
2013-07-16 12:22:00,86.5,71.4,30.17,ESE,112,2.2,-999.0,61,-99.99,,,0.00,Acu-Link.com,2013-07-16 16:22:00,
2013-07-16 12:37:00,88.3,71.6,30.18,ENE,67,1.7,-999.0,58,-99.99,,,0.00,Acu-Link.com,2013-07-16 16:37:00,
2013-07-16 12:52:00,90.0,72.2,30.17,SW,225,0.0,-999.0,56,-99.99,,,0.00,Acu-Link.com,2013-07-16 16:52:00,
2013-07-16 13:07:00,89.8,70.9,30.18,ESE,112,1.7,-999.0,54,-99.99,,,0.00,Acu-Link.com,2013-07-16 17:07:00,
2013-07-16 13:23:00,88.7,69.9,30.17,NNE,22,2.2,-999.0,54,-99.99,,,0.00,Acu-Link.com,2013-07-16 17:23:00,
2013-07-16 13:38:00,87.4,71.3,30.17,NE,45,2.2,-999.0,59,-99.99,,,0.00,Acu-Link.com,2013-07-16 17:38:00,
2013-07-16 13:53:00,86.4,69.3,30.17,SE,135,1.7,-999.0,57,-99.99,,,0.00,Acu-Link.com,2013-07-16 17:53:00,
2013-07-16 14:08:00,83.8,70.3,30.17,ESE,112,0.0,-999.0,64,-99.99,,,0.00,Acu-Link.com,2013-07-16 18:08:00,
2013-07-16 14:24:00,88.3,71.1,30.17,SSE,157,1.7,-999.0,57,-99.99,,,0.00,Acu-Link.com,2013-07-16 18:24:00,
2013-07-16 14:39:00,87.4,71.3,30.17,ESE,112,2.2,-999.0,59,-99.99,,,0.00,Acu-Link.com,2013-07-16 18:39:00,
2013-07-16 14:54:00,84.4,71.3,30.18,ESE,112,0.0,-999.0,65,-99.99,,,0.00,Acu-Link.com,2013-07-16 18:54:00,
2013-07-16 15:09:00,85.6,72.0,30.17,East,90,1.1,-999.0,64,-99.99,,,0.00,Acu-Link.com,2013-07-16 19:09:00,
2013-07-16 15:25:00,89.1,72.9,30.17,ESE,112,1.7,-999.0,59,-99.99,,,0.00,Acu-Link.com,2013-07-16 19:25:00,
2013-07-16 15:40:00,88.2,71.0,30.17,NNW,337,1.7,-999.0,57,-99.99,,,0.00,Acu-Link.com,2013-07-16 19:40:00,
2013-07-16 15:55:00,86.7,72.1,30.16,ESE,112,1.7,-999.0,62,-99.99,,,0.00,Acu-Link.com,2013-07-16 19:55:00,
2013-07-16 16:10:00,86.2,70.2,30.16,ESE,112,0.0,-999.0,59,-99.99,,,0.00,Acu-Link.com,2013-07-16 20:10:00,
2013-07-16 16:26:00,85.6,71.5,30.16,ESE,112,1.7,-999.0,63,-99.99,,,0.00,Acu-Link.com,2013-07-16 20:26:00,
2013-07-16 16:41:00,84.6,70.6,30.16,South,180,0.0,-999.0,63,-99.99,,,0.00,Acu-Link.com,2013-07-16 20:41:00,
2013-07-16 16:56:00,83.5,70.9,30.16,SE,135,1.7,-999.0,66,-99.99,,,0.00,Acu-Link.com,2013-07-16 20:56:00,
2013-07-16 17:12:00,83.1,71.9,30.16,SSE,157,2.2,-999.0,69,-99.99,,,0.00,Acu-Link.com,2013-07-16 21:12:00,
2013-07-16 17:27:00,82.6,70.9,30.16,SE,135,1.7,-999.0,68,-99.99,,,0.00,Acu-Link.com,2013-07-16 21:27:00,
2013-07-16 17:42:00,82.6,70.9,30.16,SE,135,1.1,-999.0,68,-99.99,,,0.00,Acu-Link.com,2013-07-16 21:42:00,
2013-07-16 17:57:00,82.6,70.9,30.15,SSW,202,1.1,-999.0,68,-99.99,,,0.00,Acu-Link.com,2013-07-16 21:57:00,
2013-07-16 18:12:00,82.0,70.4,30.16,ESE,112,1.1,-999.0,68,-99.99,,,0.00,Acu-Link.com,2013-07-16 22:12:00,
2013-07-16 18:28:00,81.7,70.1,30.15,SSE,157,1.7,-999.0,68,-99.99,,,0.00,Acu-Link.com,2013-07-16 22:28:00,
2013-07-16 18:43:00,80.4,69.7,30.16,South,180,1.1,-999.0,70,-99.99,,,0.00,Acu-Link.com,2013-07-16 22:43:00,
2013-07-16 18:58:00,79.7,69.4,30.15,South,180,1.7,-999.0,71,-99.99,,,0.00,Acu-Link.com,2013-07-16 22:58:00,
2013-07-16 19:13:00,79.2,69.4,30.16,SSE,157,1.1,-999.0,72,-99.99,,,0.00,Acu-Link.com,2013-07-16 23:13:00,
2013-07-16 19:28:00,78.6,68.8,30.16,South,180,1.7,-999.0,72,-99.99,,,0.00,Acu-Link.com,2013-07-16 23:28:00,
2013-07-16 19:44:00,77.9,68.9,30.16,SSW,202,1.7,-999.0,74,-99.99,,,0.00,Acu-Link.com,2013-07-16 23:44:00,
2013-07-16 19:59:00,77.4,69.2,30.17,South,180,1.7,-999.0,76,-99.99,,,0.00,Acu-Link.com,2013-07-16 23:59:00,
2013-07-16 20:14:00,76.6,68.8,30.17,South,180,1.7,-999.0,77,-99.99,,,0.00,Acu-Link.com,2013-07-17 00:14:00,
2013-07-16 20:30:00,76.1,68.7,30.17,South,180,0.0,-999.0,78,-99.99,,,0.00,Acu-Link.com,2013-07-17 00:30:00,
2013-07-16 20:45:00,75.4,68.4,30.17,ESE,112,0.0,-999.0,79,-99.99,,,0.00,Acu-Link.com,2013-07-17 00:45:00,
2013-07-16 21:00:00,74.7,69.2,30.17,SSW,202,0.0,-999.0,83,-99.99,,,0.00,Acu-Link.com,2013-07-17 01:00:00,
2013-07-16 21:15:00,73.6,68.5,30.17,South,180,0.0,-999.0,84,-99.99,,,0.00,Acu-Link.com,2013-07-17 01:15:00,
2013-07-16 21:30:00,73.0,68.6,30.18,South,180,0.0,-999.0,86,-99.99,,,0.00,Acu-Link.com,2013-07-17 01:30:00,
2013-07-16 21:46:00,72.1,68.3,30.17,South,180,0.0,-999.0,88,-99.99,,,0.00,Acu-Link.com,2013-07-17 01:46:00,
2013-07-16 22:01:00,71.8,68.0,30.18,ESE,112,0.0,-999.0,88,-99.99,,,0.00,Acu-Link.com,2013-07-17 02:01:00,
2013-07-16 22:16:00,71.2,67.5,30.18,SE,135,0.0,-999.0,88,-99.99,,,0.00,Acu-Link.com,2013-07-17 02:16:00,
2013-07-16 22:31:00,70.5,67.4,30.18,SSE,157,0.0,-999.0,90,-99.99,,,0.00,Acu-Link.com,2013-07-17 02:31:00,
2013-07-16 22:47:00,70.0,67.6,30.19,SE,135,0.0,-999.0,92,-99.99,,,0.00,Acu-Link.com,2013-07-17 02:47:00,
2013-07-16 23:02:00,69.6,67.5,30.19,South,180,0.0,-999.0,93,-99.99,,,0.00,Acu-Link.com,2013-07-17 03:02:00,
2013-07-16 23:18:00,69.3,67.8,30.19,NNW,337,0.0,-999.0,95,-99.99,,,0.00,Acu-Link.com,2013-07-17 03:18:00,
2013-07-16 23:33:00,68.7,67.2,30.18,ESE,112,0.0,-999.0,95,-99.99,,,0.00,Acu-Link.com,2013-07-17 03:33:00,
2013-07-16 23:48:00,68.2,67.0,30.19,South,180,0.0,-999.0,96,-99.99,,,0.00,Acu-Link.com,2013-07-17 03:48:00,